Time;durP1;ratioP1;P1;durP2;ratioP2;P2;SDS_P1;SDS_P2;PMS_P1;PMS_P2;Temp;Humidity;BMP_temperature;BMP_pressure;BME280_temperature;BME280_humidity;BME280_pressure;Samples;Min_cycle;Max_cycle;Signal;HPM_P1;HPM_P2
2022/03/24 00:01:33;;;;;;;17.85;11.90;;;3.70;99.90;;;;;;4916228;29;20052;-71
2022/03/24 00:04:05;;;;;;;15.32;10.88;;;3.60;99.90;;;;;;4915063;29;20082;-71
2022/03/24 00:06:37;;;;;;;22.73;10.60;;;3.60;99.90;;;;;;4914781;29;20066;-72
2022/03/24 00:09:09;;;;;;;15.57;10.60;;;3.60;99.90;;;;;;4916397;29;20455;-72
2022/03/24 00:11:37;;;;;;;18.73;11.10;;;3.60;99.90;;;;;;4914852;29;20051;-72
2022/03/24 00:14:09;;;;;;;15.43;11.02;;;3.60;99.90;;;;;;4915897;29;20055;-72
2022/03/24 00:16:40;;;;;;;13.38;10.07;;;3.60;99.90;;;;;;4914224;29;20111;-72
2022/03/24 00:19:12;;;;;;;17.33;11.07;;;3.60;99.90;;;;;;4914730;29;20044;-71
2022/03/24 00:21:45;;;;;;;18.23;12.30;;;3.60;99.90;;;;;;4914707;29;20103;-71
2022/03/24 00:24:17;;;;;;;18.03;12.23;;;3.50;99.90;;;;;;4915782;29;20523;-71
2022/03/24 00:26:49;;;;;;;18.70;13.98;;;3.50;99.90;;;;;;4914396;29;20296;-71
2022/03/24 00:29:20;;;;;;;18.02;13.35;;;3.50;99.90;;;;;;4913927;29;20048;-71
2022/03/24 00:31:52;;;;;;;19.05;12.68;;;3.40;99.90;;;;;;4914435;29;20059;-71
2022/03/24 00:34:24;;;;;;;17.63;11.68;;;3.40;99.90;;;;;;4914313;29;20139;-72
2022/03/24 00:36:56;;;;;;;18.20;12.13;;;3.40;99.90;;;;;;4899152;29;20036;-73
2022/03/24 00:39:33;;;;;;;19.58;13.10;;;3.40;99.90;;;;;;4915643;29;20131;-72
2022/03/24 00:42:11;;;;;;;17.73;12.75;;;3.30;99.90;;;;;;4915419;29;20071;-72
2022/03/24 00:44:44;;;;;;;17.67;12.75;;;3.30;99.90;;;;;;4915454;29;20044;-72
2022/03/24 00:47:13;;;;;;;16.80;11.65;;;3.30;99.90;;;;;;4913935;29;20056;-72
2022/03/24 00:49:47;;;;;;;16.75;11.43;;;3.30;99.90;;;;;;4914304;29;20048;-71
2022/03/24 00:52:18;;;;;;;19.42;12.02;;;3.30;99.90;;;;;;4914053;29;20047;-72
2022/03/24 00:54:50;;;;;;;15.98;10.75;;;3.20;99.90;;;;;;4914073;29;20044;-72
2022/03/24 00:57:17;;;;;;;15.68;10.18;;;3.20;99.90;;;;;;4913681;29;20051;-72
2022/03/24 00:59:49;;;;;;;14.60;10.73;;;3.20;99.90;;;;;;4914130;29;20048;-72
2022/03/24 01:02:20;;;;;;;16.63;12.13;;;3.10;99.90;;;;;;4898883;29;20523;-72
2022/03/24 01:04:52;;;;;;;17.95;13.05;;;3.10;99.90;;;;;;4913981;29;20044;-72
2022/03/24 01:07:24;;;;;;;16.35;12.10;;;3.10;99.90;;;;;;4913557;29;20044;-72
2022/03/24 01:09:55;;;;;;;18.00;12.38;;;3.00;99.90;;;;;;4899023;29;20144;-71
2022/03/24 01:12:28;;;;;;;19.88;12.65;;;3.00;99.90;;;;;;4914952;29;20080;-72
2022/03/24 01:15:00;;;;;;;19.00;12.85;;;3.00;99.90;;;;;;4913925;29;20048;-71
2022/03/24 01:17:31;;;;;;;16.10;11.75;;;3.00;99.90;;;;;;4913483;29;20510;-72
2022/03/24 01:20:05;;;;;;;18.77;11.70;;;3.00;99.90;;;;;;4898884;29;20052;-73
2022/03/24 01:22:37;;;;;;;16.17;10.95;;;2.90;99.90;;;;;;4913954;29;20044;-71
2022/03/24 01:25:09;;;;;;;17.58;12.35;;;2.80;99.90;;;;;;4913789;29;20048;-71
2022/03/24 01:27:41;;;;;;;17.02;11.35;;;2.80;99.90;;;;;;4898422;29;20120;-72
2022/03/24 01:30:14;;;;;;;18.35;12.05;;;2.70;99.90;;;;;;4917764;29;20460;-72
2022/03/24 01:32:46;;;;;;;16.98;10.90;;;2.70;99.90;;;;;;4902578;29;20050;-72
2022/03/24 01:35:15;;;;;;;18.30;12.18;;;2.70;99.90;;;;;;4918778;29;20123;-72
2022/03/24 01:37:46;;;;;;;;;;;2.70;99.90;;;;;;4917599;29;20533;-72
2022/03/24 01:40:18;;;;;;;16.00;10.43;;;2.70;99.90;;;;;;4917506;29;20374;-71
2022/03/24 01:42:47;;;;;;;17.50;10.65;;;2.60;99.90;;;;;;4901674;29;20107;-72
2022/03/24 01:45:19;;;;;;;15.07;10.02;;;2.60;99.90;;;;;;4917462;29;20048;-72
2022/03/24 01:47:51;;;;;;;17.58;10.27;;;2.60;99.90;;;;;;4902087;29;20139;-72
2022/03/24 01:50:22;;;;;;;19.00;11.52;;;2.50;99.90;;;;;;4917526;29;20055;-72
2022/03/24 01:52:54;;;;;;;16.00;10.48;;;2.60;99.90;;;;;;4902228;29;20131;-72
2022/03/24 01:55:26;;;;;;;16.73;10.23;;;2.50;99.90;;;;;;4902510;29;20439;-72
2022/03/24 01:57:58;;;;;;;17.77;11.57;;;2.50;99.90;;;;;;4901914;29;20051;-72
2022/03/24 02:00:31;;;;;;;19.15;10.93;;;2.50;99.90;;;;;;4901653;29;20051;-72
2022/03/24 02:03:05;;;;;;;17.70;11.10;;;2.50;99.90;;;;;;4914836;29;20087;-72
2022/03/24 02:05:38;;;;;;;15.98;10.23;;;2.50;99.90;;;;;;4916488;29;20064;-72
2022/03/24 02:08:11;;;;;;;18.45;11.32;;;2.50;99.90;;;;;;4901050;29;20528;-72
2022/03/24 02:10:43;;;;;;;14.80;11.15;;;2.40;99.90;;;;;;4901320;29;20048;-72
2022/03/24 02:13:16;;;;;;;17.90;10.75;;;2.40;99.90;;;;;;4915464;29;21102;-71
2022/03/24 02:15:49;;;;;;;16.17;10.68;;;2.30;99.90;;;;;;4916165;29;20095;-72
2022/03/24 02:18:21;;;;;;;17.55;11.52;;;2.30;99.90;;;;;;4915653;29;20040;-72
2022/03/24 02:20:52;;;;;;;17.10;11.00;;;2.30;99.90;;;;;;4916126;29;20044;-74
2022/03/24 02:23:24;;;;;;;15.68;9.98;;;2.30;99.90;;;;;;4900726;29;20044;-72
2022/03/24 02:25:57;;;;;;;17.98;10.85;;;2.30;99.90;;;;;;4916058;29;20463;-71
2022/03/24 02:28:29;;;;;;;15.68;10.38;;;2.20;99.90;;;;;;4916780;29;20048;-73
2022/03/24 02:31:01;;;;;;;14.75;10.15;;;2.20;99.90;;;;;;4915814;29;20044;-72
2022/03/24 02:33:34;;;;;;;16.48;11.05;;;2.10;99.90;;;;;;4915601;29;20499;-72
2022/03/24 02:36:07;;;;;;;14.38;9.73;;;2.10;99.90;;;;;;4900847;29;20406;-72
2022/03/24 02:38:38;;;;;;;15.63;10.13;;;2.10;99.90;;;;;;4915534;29;20063;-72
2022/03/24 02:41:10;;;;;;;17.70;10.55;;;2.10;99.90;;;;;;4915492;29;20296;-72
2022/03/24 02:43:42;;;;;;;19.35;12.20;;;2.00;99.90;;;;;;4916822;29;20507;-72
2022/03/24 02:46:14;;;;;;;19.15;12.43;;;2.00;99.90;;;;;;4900752;29;20062;-72
2022/03/24 02:48:45;;;;;;;18.98;11.07;;;1.90;99.90;;;;;;4900562;29;20062;-72
2022/03/24 02:51:17;;;;;;;17.02;11.63;;;1.90;99.90;;;;;;4916479;29;20052;-72
2022/03/24 02:53:49;;;;;;;15.80;10.45;;;1.90;99.90;;;;;;4915619;29;20060;-72
2022/03/24 02:56:20;;;;;;;18.52;12.02;;;1.90;99.90;;;;;;4900140;29;20443;-72
2022/03/24 02:58:52;;;;;;;19.08;11.50;;;1.80;99.90;;;;;;4916663;29;20044;-72
2022/03/24 03:01:27;;;;;;;17.45;11.02;;;1.80;99.90;;;;;;4914916;29;20472;-72
2022/03/24 03:03:59;;;;;;;18.17;10.85;;;1.80;99.90;;;;;;4915439;29;20047;-72
2022/03/24 03:06:33;;;;;;;18.52;11.25;;;1.80;99.90;;;;;;4915200;29;20040;-72
2022/03/24 03:09:01;;;;;;;20.27;11.40;;;1.80;99.90;;;;;;4916248;29;20513;-72
2022/03/24 03:11:33;;;;;;;17.50;10.05;;;1.80;99.90;;;;;;4899740;29;20052;-72
2022/03/24 03:14:04;;;;;;;19.48;10.50;;;1.80;99.90;;;;;;4916472;29;20040;-71
2022/03/24 03:16:36;;;;;;;17.40;10.45;;;1.80;99.90;;;;;;4916234;29;20050;-72
2022/03/24 03:19:08;;;;;;;16.00;10.25;;;1.80;99.90;;;;;;4916409;29;20070;-72
2022/03/24 03:21:41;;;;;;;18.83;11.85;;;1.70;99.90;;;;;;4914625;29;20511;-71
2022/03/24 03:24:13;;;;;;;20.00;11.02;;;1.70;99.90;;;;;;4914954;29;20063;-72
2022/03/24 03:26:45;;;;;;;17.63;10.82;;;1.70;99.90;;;;;;4899744;29;20083;-72
2022/03/24 03:29:17;;;;;;;16.83;10.50;;;1.70;99.90;;;;;;4914967;29;20479;-72
2022/03/24 03:31:50;;;;;;;17.55;11.10;;;1.70;99.90;;;;;;4914479;29;20052;-72
2022/03/24 03:34:25;;;;;;;16.98;10.73;;;1.70;99.90;;;;;;4914814;29;20422;-72
2022/03/24 03:36:59;;;;;;;17.38;11.02;;;1.70;99.90;;;;;;4899515;29;20081;-72
2022/03/24 03:39:31;;;;;;;;;;;1.70;99.90;;;;;;4900134;29;20491;-72
2022/03/24 03:42:04;;;;;;;19.23;11.23;;;1.60;99.90;;;;;;4915484;29;19997;-71
2022/03/24 03:44:36;;;;;;;18.02;11.18;;;1.60;99.90;;;;;;4915834;29;20562;-72
2022/03/24 03:47:08;;;;;;;17.48;10.85;;;1.60;99.90;;;;;;4914328;29;20380;-71
2022/03/24 03:49:40;;;;;;;18.60;10.77;;;1.60;99.90;;;;;;4914636;29;20067;-71
2022/03/24 03:52:12;;;;;;;21.23;11.65;;;1.60;99.90;;;;;;4914632;29;20523;-71
2022/03/24 03:54:44;;;;;;;17.10;11.30;;;1.60;99.90;;;;;;4914370;29;20040;-72
2022/03/24 03:57:17;;;;;;;16.02;10.60;;;1.50;99.90;;;;;;4914183;29;20040;-71
2022/03/24 03:59:48;;;;;;;17.70;11.30;;;1.50;99.90;;;;;;4914362;29;20043;-71
2022/03/24 04:02:20;;;;;;;14.50;10.30;;;1.50;99.90;;;;;;4915039;29;20095;-72
2022/03/24 04:04:52;;;;;;;19.77;11.60;;;1.40;99.90;;;;;;4899135;29;20139;-72
2022/03/24 04:07:24;;;;;;;16.48;10.65;;;1.40;99.90;;;;;;4914855;29;20478;-72
2022/03/24 04:09:55;;;;;;;15.27;10.52;;;1.40;99.90;;;;;;4914218;29;20515;-71
2022/03/24 04:12:27;;;;;;;16.67;11.10;;;1.40;99.90;;;;;;4914659;29;20402;-71
2022/03/24 04:14:59;;;;;;;18.60;10.57;;;1.40;99.90;;;;;;4915291;29;20518;-72
2022/03/24 04:17:31;;;;;;;26.98;11.70;;;1.40;99.90;;;;;;4914407;29;20103;-72
2022/03/24 04:20:03;;;;;;;20.48;11.57;;;1.30;99.90;;;;;;4914380;29;20096;-72
2022/03/24 04:22:30;;;;;;;20.33;10.88;;;1.30;99.90;;;;;;4915213;29;20048;-71
2022/03/24 04:25:02;;;;;;;18.15;10.63;;;1.20;99.90;;;;;;4915758;29;20333;-72
2022/03/24 04:27:34;;;;;;;23.48;11.65;;;1.20;99.90;;;;;;4914396;29;20048;-71
2022/03/24 04:30:06;;;;;;;17.88;10.80;;;1.10;99.90;;;;;;4914750;29;20503;-72
2022/03/24 04:32:39;;;;;;;19.52;11.23;;;1.10;99.90;;;;;;4915382;29;20572;-72
2022/03/24 04:35:11;;;;;;;17.10;10.80;;;1.00;99.90;;;;;;4914365;29;20048;-72
2022/03/24 04:37:44;;;;;;;20.05;10.80;;;1.00;99.90;;;;;;4915683;29;20460;-72
2022/03/24 04:40:17;;;;;;;17.58;10.95;;;1.00;99.90;;;;;;4914569;29;20095;-72
2022/03/24 04:42:46;;;;;;;20.00;12.00;;;1.00;99.90;;;;;;4913923;29;20044;-71
2022/03/24 04:45:19;;;;;;;20.05;11.50;;;1.00;99.90;;;;;;4914328;29;20048;-71
2022/03/24 04:47:51;;;;;;;17.80;11.55;;;0.90;99.90;;;;;;4915595;29;20048;-72
2022/03/24 04:50:22;;;;;;;20.02;10.95;;;0.90;99.90;;;;;;4899228;29;20063;-72
2022/03/24 04:52:54;;;;;;;18.98;11.25;;;0.90;99.90;;;;;;4913927;29;20084;-71
2022/03/24 04:55:26;;;;;;;18.52;11.27;;;0.90;99.90;;;;;;4899247;29;20062;-72
2022/03/24 04:57:58;;;;;;;17.52;11.15;;;0.90;99.90;;;;;;4915131;29;20052;-72
2022/03/24 05:00:29;;;;;;;17.40;11.48;;;0.90;99.90;;;;;;4914437;29;20479;-71
2022/03/24 05:03:01;;;;;;;17.35;11.07;;;0.80;99.90;;;;;;4912694;29;20048;-72
2022/03/24 05:05:33;;;;;;;19.70;11.55;;;0.80;99.90;;;;;;4909275;29;20048;-71
2022/03/24 05:08:06;;;;;;;17.73;10.23;;;0.80;99.90;;;;;;4908927;29;20055;-71
2022/03/24 05:10:38;;;;;;;18.00;11.68;;;0.80;99.90;;;;;;4918661;29;20043;-72
2022/03/24 05:13:10;;;;;;;21.73;11.98;;;0.80;99.90;;;;;;4930367;29;20037;-72
2022/03/24 05:15:41;;;;;;;19.67;11.88;;;0.80;99.90;;;;;;4898827;29;20040;-72
2022/03/24 05:18:13;;;;;;;22.02;13.30;;;0.80;99.90;;;;;;4931371;29;20510;-72
2022/03/24 05:20:40;;;;;;;22.73;12.85;;;0.80;99.90;;;;;;4932550;29;20490;-71
2022/03/24 05:23:12;;;;;;;24.20;13.05;;;0.80;99.90;;;;;;4931579;29;20062;-71
2022/03/24 05:25:47;;;;;;;19.23;12.07;;;0.80;99.90;;;;;;4917065;29;20043;-71
2022/03/24 05:28:19;;;;;;;20.40;12.38;;;0.80;99.90;;;;;;4936960;29;20048;-70
2022/03/24 05:30:51;;;;;;;18.35;11.55;;;0.80;99.90;;;;;;4933320;29;20040;-71
2022/03/24 05:33:18;;;;;;;18.38;11.40;;;0.70;99.90;;;;;;4931663;29;20689;-71
2022/03/24 05:35:49;;;;;;;19.58;11.82;;;0.70;99.90;;;;;;4932251;29;20518;-71
2022/03/24 05:38:21;;;;;;;19.85;11.40;;;0.70;99.90;;;;;;4933050;29;20091;-71
2022/03/24 05:40:54;;;;;;;18.83;11.70;;;0.70;99.90;;;;;;4932930;29;20402;-72
2022/03/24 05:43:26;;;;;;;25.27;12.68;;;0.70;99.90;;;;;;4916682;29;20054;-72
2022/03/24 05:45:58;;;;;;;22.35;11.90;;;0.70;99.90;;;;;;4932137;29;20055;-71
2022/03/24 05:48:30;;;;;;;17.45;12.05;;;0.70;99.90;;;;;;4931977;29;20502;-72
2022/03/24 05:51:27;;;;;;;19.02;11.82;;;0.70;99.90;;;;;;4932220;29;20439;-71
2022/03/24 05:54:00;;;;;;;20.95;11.32;;;0.80;99.90;;;;;;4913358;29;20073;-71
2022/03/24 05:56:31;;;;;;;25.33;12.63;;;0.80;99.90;;;;;;4931626;29;20062;-71
2022/03/24 05:59:03;;;;;;;20.20;11.25;;;0.80;99.90;;;;;;4933042;29;20042;-71
2022/03/24 06:01:36;;;;;;;23.75;14.00;;;0.90;99.90;;;;;;4931574;29;20043;-71
2022/03/24 06:04:08;;;;;;;29.73;17.17;;;0.90;99.90;;;;;;4931954;29;20048;-71
2022/03/24 06:06:42;;;;;;;28.48;15.65;;;0.90;99.90;;;;;;4925408;29;20040;-71
2022/03/24 06:09:14;;;;;;;27.88;14.98;;;1.00;99.90;;;;;;4928666;29;20043;-71
2022/03/24 06:11:40;;;;;;;27.98;15.00;;;1.00;99.90;;;;;;4928111;29;20083;-71
2022/03/24 06:14:12;;;;;;;25.00;16.33;;;1.00;99.90;;;;;;4925317;29;20126;-71
2022/03/24 06:16:44;;;;;;;27.95;15.60;;;1.00;99.90;;;;;;4932351;29;20035;-71
2022/03/24 06:19:16;;;;;;;34.13;17.25;;;1.10;99.90;;;;;;4933613;29;20035;-71
2022/03/24 06:21:48;;;;;;;36.33;17.55;;;1.10;99.90;;;;;;4915975;29;20043;-72
2022/03/24 06:24:20;;;;;;;32.80;16.42;;;1.10;99.90;;;;;;4932419;29;20054;-72
2022/03/24 06:26:52;;;;;;;37.35;19.17;;;1.20;99.90;;;;;;4933013;29;20044;-71
2022/03/24 06:29:24;;;;;;;31.23;19.10;;;1.20;99.90;;;;;;4931874;29;20058;-70
2022/03/24 06:31:56;;;;;;;33.13;18.05;;;1.30;99.90;;;;;;4931752;29;20043;-71
2022/03/24 06:34:28;;;;;;;32.35;18.60;;;1.30;99.90;;;;;;4932205;29;20046;-70
2022/03/24 06:37:01;;;;;;;29.83;18.88;;;1.40;99.90;;;;;;4932873;29;20052;-70
2022/03/24 06:39:32;;;;;;;26.23;15.48;;;1.50;99.90;;;;;;4927267;29;20079;-70
2022/03/24 06:42:04;;;;;;;34.30;16.25;;;1.50;99.90;;;;;;4931710;29;20063;-71
2022/03/24 06:44:31;;;;;;;30.58;15.75;;;1.60;99.90;;;;;;4933713;29;20043;-71
2022/03/24 06:47:03;;;;;;;24.98;15.77;;;1.60;99.90;;;;;;4935979;29;20043;-71
2022/03/24 06:49:35;;;;;;;29.25;17.73;;;1.70;99.90;;;;;;4936351;29;20044;-71
2022/03/24 06:52:07;;;;;;;31.90;18.95;;;1.90;99.90;;;;;;4931732;29;20058;-71
2022/03/24 06:54:39;;;;;;;25.85;16.85;;;2.00;99.90;;;;;;4933648;29;20067;-72
2022/03/24 06:57:06;;;;;;;22.85;16.00;;;2.10;99.90;;;;;;4933381;29;20047;-71
2022/03/24 06:59:37;;;;;;;27.63;15.90;;;2.10;99.90;;;;;;4917266;29;20044;-71
2022/03/24 07:02:09;;;;;;;26.98;17.25;;;2.10;99.90;;;;;;4933239;29;20046;-71
2022/03/24 07:04:41;;;;;;;23.73;16.10;;;2.20;99.90;;;;;;4932402;29;20054;-71
2022/03/24 07:07:13;;;;;;;25.50;17.13;;;2.20;99.90;;;;;;4935973;29;20054;-73
2022/03/24 07:09:45;;;;;;;24.58;16.45;;;2.30;99.90;;;;;;4919928;29;20516;-71
2022/03/24 07:12:20;;;;;;;25.48;15.43;;;2.40;99.90;;;;;;4919450;29;20417;-71
2022/03/24 07:14:52;;;;;;;26.40;15.45;;;2.50;99.90;;;;;;4936015;29;20044;-71
2022/03/24 07:17:19;;;;;;;23.95;14.52;;;2.50;99.90;;;;;;4934641;29;20048;-71
2022/03/24 07:19:51;;;;;;;23.45;15.48;;;2.60;99.90;;;;;;4919753;29;20044;-71
2022/03/24 07:22:23;;;;;;;28.20;15.57;;;2.70;99.90;;;;;;4934279;29;20044;-71
2022/03/24 07:24:54;;;;;;;25.70;16.80;;;2.90;99.90;;;;;;4935902;29;20061;-71
2022/03/24 07:27:26;;;;;;;27.20;15.38;;;2.90;99.90;;;;;;4934936;29;20067;-71
2022/03/24 07:29:58;;;;;;;25.20;15.75;;;3.10;99.90;;;;;;4919615;29;20054;-71
2022/03/24 07:32:30;;;;;;;26.25;16.45;;;3.10;99.90;;;;;;4919054;29;20048;-72
2022/03/24 07:35:04;;;;;;;22.15;14.55;;;3.20;99.90;;;;;;4919326;29;20125;-71
2022/03/24 07:37:35;;;;;;;;;;;3.30;99.90;;;;;;4934882;29;20426;-71
2022/03/24 07:40:03;;;;;;;24.80;15.15;;;3.40;99.90;;;;;;4935821;29;19926;-71
2022/03/24 07:42:35;;;;;;;22.40;14.57;;;3.50;99.90;;;;;;4934043;29;20062;-71
2022/03/24 07:45:07;;;;;;;28.52;15.60;;;3.60;99.90;;;;;;4935641;29;20046;-71
2022/03/24 07:48:06;;;;;;;24.02;14.73;;;3.70;99.90;;;;;;4935236;29;20048;-70
2022/03/24 07:50:39;;;;;;;23.23;14.32;;;3.80;99.90;;;;;;4934287;29;20529;-71
2022/03/24 07:53:11;;;;;;;26.90;16.75;;;4.00;99.90;;;;;;4933798;29;20147;-70
2022/03/24 07:55:45;;;;;;;28.58;15.63;;;4.10;99.90;;;;;;4934172;29;20083;-71
2022/03/24 07:58:14;;;;;;;31.30;17.08;;;4.30;99.90;;;;;;4935087;29;20047;-71
2022/03/24 08:00:47;;;;;;;30.02;17.58;;;4.40;99.90;;;;;;4935288;29;20044;-71
2022/03/24 08:03:20;;;;;;;29.85;17.70;;;4.50;99.90;;;;;;4918758;29;20044;-71
2022/03/24 08:05:52;;;;;;;42.83;23.05;;;4.60;99.90;;;;;;4934034;29;20061;-71
2022/03/24 08:08:26;;;;;;;65.38;33.10;;;4.90;99.90;;;;;;4933745;29;20536;-71
2022/03/24 08:10:58;;;;;;;46.28;25.88;;;5.10;99.90;;;;;;4918481;29;20059;-72
2022/03/24 08:13:30;;;;;;;29.45;17.27;;;5.30;99.90;;;;;;4933469;29;20381;-71
2022/03/24 08:16:03;;;;;;;27.60;15.88;;;5.40;99.90;;;;;;4934913;29;20391;-72
2022/03/24 08:18:35;;;;;;;26.70;15.80;;;5.50;99.90;;;;;;4934359;29;20502;-72
2022/03/24 08:21:06;;;;;;;26.30;16.58;;;5.70;99.90;;;;;;4933455;29;20040;-72
2022/03/24 08:23:38;;;;;;;26.67;18.45;;;5.90;99.90;;;;;;4934659;29;20071;-71
2022/03/24 08:26:05;;;;;;;28.85;16.40;;;6.00;99.90;;;;;;4934847;29;20044;-71
2022/03/24 08:28:37;;;;;;;29.60;16.42;;;6.30;99.90;;;;;;4934657;29;20067;-71
2022/03/24 08:31:09;;;;;;;31.50;15.90;;;6.40;99.90;;;;;;4933398;29;20046;-71
2022/03/24 08:33:40;;;;;;;26.85;16.52;;;6.60;99.90;;;;;;4918038;29;20043;-71
2022/03/24 08:36:12;;;;;;;24.55;16.23;;;6.80;99.90;;;;;;4918403;29;20044;-71
2022/03/24 08:38:44;;;;;;;26.10;16.13;;;6.90;99.90;;;;;;4933084;29;20498;-71
2022/03/24 08:41:16;;;;;;;24.52;15.57;;;7.10;99.90;;;;;;4934533;29;20054;-71
2022/03/24 08:43:47;;;;;;;23.65;15.52;;;7.20;99.90;;;;;;4933077;29;20065;-71
2022/03/24 08:46:24;;;;;;;24.83;15.38;;;7.40;99.90;;;;;;4933358;29;20079;-71
2022/03/24 08:48:56;;;;;;;25.52;15.63;;;7.60;99.90;;;;;;4934444;29;20079;-71
2022/03/24 08:51:28;;;;;;;24.80;16.15;;;7.80;99.90;;;;;;4932980;29;20062;-72
2022/03/24 08:54:00;;;;;;;23.05;14.98;;;7.90;99.90;;;;;;4917870;29;20051;-72
2022/03/24 08:56:31;;;;;;;22.30;15.38;;;8.10;99.90;;;;;;4934490;29;20057;-72
2022/03/24 08:59:04;;;;;;;28.42;17.85;;;8.30;99.90;;;;;;4934291;29;20050;-73
2022/03/24 09:01:37;;;;;;;22.38;15.88;;;8.50;99.90;;;;;;4934106;29;20076;-71
2022/03/24 09:04:11;;;;;;;30.05;16.13;;;8.70;99.90;;;;;;4933193;29;20058;-71
2022/03/24 09:06:44;;;;;;;27.25;16.73;;;8.90;99.90;;;;;;4917931;29;20421;-71
2022/03/24 09:09:16;;;;;;;25.00;16.33;;;9.00;99.90;;;;;;4932892;29;20051;-73
2022/03/24 09:11:50;;;;;;;27.92;16.58;;;9.20;99.90;;;;;;4917528;29;20066;-70
2022/03/24 09:14:22;;;;;;;26.20;16.30;;;9.30;99.90;;;;;;4934015;29;20039;-71
2022/03/24 09:16:54;;;;;;;24.90;16.02;;;9.50;99.90;;;;;;4934069;29;20513;-71
2022/03/24 09:19:26;;;;;;;24.85;16.45;;;9.70;99.90;;;;;;4934132;29;20040;-72
2022/03/24 09:21:59;;;;;;;25.63;17.15;;;9.80;99.90;;;;;;4917512;29;20119;-72
2022/03/24 09:24:32;;;;;;;24.58;15.95;;;10.00;99.50;;;;;;4934131;29;20052;-71
2022/03/24 09:27:05;;;;;;;23.00;16.17;;;10.20;99.00;;;;;;4934092;29;20413;-71
2022/03/24 09:29:37;;;;;;;27.35;17.20;;;10.30;98.30;;;;;;4933961;29;20047;-71
2022/03/24 09:32:12;;;;;;;20.67;14.82;;;10.40;97.30;;;;;;4932651;29;20119;-71
2022/03/24 09:34:44;;;;;;;26.42;16.25;;;10.60;96.10;;;;;;4933912;29;20122;-72
2022/03/24 09:37:13;;;;;;;29.02;17.27;;;10.70;96.10;;;;;;4932726;29;20050;-71
2022/03/24 09:39:45;;;;;;;;;;;10.90;96.50;;;;;;4933114;29;20044;-72
2022/03/24 09:42:18;;;;;;;26.60;17.00;;;11.10;96.10;;;;;;4932598;29;19923;-71
2022/03/24 09:44:50;;;;;;;30.77;16.88;;;11.30;95.00;;;;;;4933517;29;20400;-71
2022/03/24 09:47:25;;;;;;;24.35;16.60;;;11.40;94.50;;;;;;4917630;29;20103;-71
2022/03/24 09:49:52;;;;;;;22.90;15.88;;;11.60;93.90;;;;;;4934378;29;20040;-71
2022/03/24 09:52:25;;;;;;;24.20;14.80;;;11.80;92.50;;;;;;4921080;29;20047;-72
2022/03/24 09:54:57;;;;;;;24.33;16.23;;;11.90;91.40;;;;;;4936226;29;20059;-71
2022/03/24 09:57:29;;;;;;;27.00;17.27;;;12.10;91.50;;;;;;4936249;29;20270;-71
2022/03/24 10:00:03;;;;;;;22.60;15.82;;;12.20;91.10;;;;;;4936270;29;20046;-71
2022/03/24 10:02:34;;;;;;;26.05;16.50;;;12.30;87.30;;;;;;4935995;29;20048;-72
2022/03/24 10:05:08;;;;;;;27.13;18.25;;;12.50;86.10;;;;;;4936293;29;20122;-72
2022/03/24 10:07:46;;;;;;;23.63;16.25;;;12.60;85.40;;;;;;4935863;29;20130;-71
2022/03/24 10:10:26;;;;;;;26.70;16.25;;;12.70;85.20;;;;;;4937297;29;20048;-72
2022/03/24 10:12:57;;;;;;;27.17;17.25;;;12.80;84.50;;;;;;4935967;29;20044;-71
2022/03/24 10:15:29;;;;;;;22.95;15.45;;;12.90;82.50;;;;;;4937102;29;20043;-71
2022/03/24 10:18:01;;;;;;;24.20;16.63;;;13.00;78.00;;;;;;4937269;29;20050;-71
2022/03/24 10:20:33;;;;;;;24.30;15.93;;;13.20;78.20;;;;;;4935747;29;20079;-72
2022/03/24 10:23:06;;;;;;;23.95;16.27;;;13.40;76.40;;;;;;4935524;29;20146;-71
2022/03/24 10:25:39;;;;;;;23.95;15.48;;;13.50;75.90;;;;;;4937077;29;20079;-71
2022/03/24 10:28:17;;;;;;;24.15;14.60;;;13.60;72.50;;;;;;4935671;29;20075;-72
2022/03/24 10:30:51;;;;;;;20.77;14.75;;;13.80;71.00;;;;;;4935713;29;20109;-71
2022/03/24 10:33:38;;;;;;;20.65;14.48;;;13.90;65.00;;;;;;4935719;29;20396;-71
2022/03/24 10:36:17;;;;;;;19.90;14.38;;;14.00;63.30;;;;;;4920618;29;20051;-72
2022/03/24 10:38:55;;;;;;;18.90;13.88;;;14.20;62.70;;;;;;4935407;29;20048;-71
2022/03/24 10:41:35;;;;;;;17.58;12.57;;;14.30;60.70;;;;;;4920115;29;20052;-73
2022/03/24 10:44:12;;;;;;;19.63;13.38;;;14.40;57.20;;;;;;4935310;29;20516;-72
2022/03/24 10:46:44;;;;;;;20.23;13.10;;;14.60;57.30;;;;;;4935331;29;20062;-72
2022/03/24 10:49:23;;;;;;;19.43;13.70;;;14.70;59.30;;;;;;4920323;29;20044;-71
2022/03/24 10:51:55;;;;;;;19.08;14.48;;;14.80;59.20;;;;;;4936303;29;20322;-72
2022/03/24 10:54:49;;;;;;;21.02;14.75;;;15.00;58.80;;;;;;4935226;29;20046;-71
2022/03/24 10:57:23;;;;;;;18.13;13.35;;;15.10;59.70;;;;;;4920129;29;20075;-72
2022/03/24 10:59:58;;;;;;;20.77;14.45;;;15.20;58.90;;;;;;4936242;29;20054;-71
2022/03/24 11:02:31;;;;;;;21.52;14.02;;;15.40;57.60;;;;;;4936211;29;20094;-73
2022/03/24 11:05:12;;;;;;;18.08;13.35;;;15.50;57.90;;;;;;4935027;29;20403;-71
2022/03/24 11:07:54;;;;;;;19.05;14.50;;;15.60;58.30;;;;;;4934821;29;20418;-71
2022/03/24 11:10:26;;;;;;;18.77;14.13;;;15.70;59.00;;;;;;4934928;29;20040;-71
2022/03/24 11:13:01;;;;;;;16.63;12.68;;;15.90;58.00;;;;;;4919448;29;20446;-72
2022/03/24 11:15:28;;;;;;;19.73;15.20;;;16.10;56.10;;;;;;4935931;29;20036;-72
2022/03/24 11:18:00;;;;;;;19.33;13.98;;;16.10;55.80;;;;;;4936054;29;20039;-71
2022/03/24 11:20:40;;;;;;;14.82;11.80;;;16.10;55.70;;;;;;4934812;29;20420;-71
2022/03/24 11:23:21;;;;;;;13.38;10.82;;;16.10;54.90;;;;;;4920216;29;20411;-73
2022/03/24 11:25:56;;;;;;;12.15;9.50;;;16.20;53.60;;;;;;4934699;29;20054;-71
2022/03/24 11:28:29;;;;;;;12.45;10.00;;;16.30;48.40;;;;;;4919543;29;20060;-72
2022/03/24 11:31:05;;;;;;;13.20;10.00;;;16.40;49.50;;;;;;4935525;29;20138;-71
2022/03/24 11:33:41;;;;;;;14.02;9.13;;;16.40;47.70;;;;;;4918842;29;20146;-71
2022/03/24 11:36:16;;;;;;;11.13;9.60;;;16.50;47.60;;;;;;4934415;29;20044;-71
2022/03/24 11:38:50;;;;;;;12.10;9.15;;;16.60;48.20;;;;;;4934449;29;20047;-71
2022/03/24 11:41:43;;;;;;;13.32;8.98;;;16.80;47.30;;;;;;4935235;29;20047;-71
2022/03/24 11:44:22;;;;;;;11.95;9.38;;;16.90;46.40;;;;;;4935468;29;20048;-71
2022/03/24 11:46:56;;;;;;;16.10;11.48;;;17.00;48.80;;;;;;4934350;29;20409;-71
2022/03/24 11:49:30;;;;;;;16.02;11.63;;;17.20;50.20;;;;;;4904683;29;20069;-71
2022/03/24 11:51:56;;;;;;;18.42;12.07;;;17.20;49.80;;;;;;4925201;29;20594;-72
2022/03/24 11:54:32;;;;;;;17.45;13.13;;;17.20;50.20;;;;;;4920885;29;20054;-72
2022/03/24 11:57:22;;;;;;;17.15;12.57;;;17.20;49.30;;;;;;4922164;29;20147;-71
2022/03/24 12:00:12;;;;;;;18.02;12.32;;;17.30;50.10;;;;;;4903711;29;20039;-72
2022/03/24 12:02:48;;;;;;;19.63;11.65;;;17.40;50.40;;;;;;4930301;29;20035;-71
2022/03/24 12:05:20;;;;;;;19.42;12.90;;;17.40;48.90;;;;;;4926702;29;20043;-71
2022/03/24 12:08:04;;;;;;;19.25;14.20;;;17.50;50.00;;;;;;4931857;29;20064;-71
2022/03/24 12:10:36;;;;;;;17.05;13.23;;;17.50;48.20;;;;;;4912338;29;20526;-71
2022/03/24 12:13:13;;;;;;;18.85;11.88;;;17.50;49.10;;;;;;4912680;29;20045;-73
2022/03/24 12:16:05;;;;;;;14.77;11.27;;;17.50;48.00;;;;;;4926673;29;20036;-71
2022/03/24 12:18:42;;;;;;;13.77;11.63;;;17.60;47.40;;;;;;4927626;29;20043;-71
2022/03/24 12:21:27;;;;;;;15.10;12.52;;;17.70;46.40;;;;;;4918321;29;20051;-71
2022/03/24 12:24:19;;;;;;;18.88;14.27;;;17.70;47.10;;;;;;4912794;29;20071;-71
2022/03/24 12:26:54;;;;;;;18.65;13.77;;;17.70;48.80;;;;;;4913141;29;20048;-71
2022/03/24 12:29:27;;;;;;;15.70;12.90;;;17.90;48.00;;;;;;4891534;29;20075;-71
2022/03/24 12:32:05;;;;;;;18.48;13.55;;;17.90;47.20;;;;;;4914945;29;20047;-71
2022/03/24 12:34:44;;;;;;;16.17;11.88;;;17.90;47.10;;;;;;4911963;29;20044;-73
2022/03/24 12:37:31;;;;;;;17.77;12.30;;;17.90;46.50;;;;;;4915680;29;20506;-71
2022/03/24 12:40:07;;;;;;;16.42;13.00;;;18.00;46.50;;;;;;4910007;29;20429;-71
2022/03/24 12:42:40;;;;;;;15.57;11.88;;;18.00;44.90;;;;;;4895952;29;20127;-70
2022/03/24 12:45:27;;;;;;;13.95;11.90;;;18.10;46.40;;;;;;4917841;29;20048;-71
2022/03/24 12:48:05;;;;;;;16.77;12.75;;;18.10;45.40;;;;;;4894277;29;20488;-71
2022/03/24 12:50:36;;;;;;;16.93;12.37;;;18.10;45.00;;;;;;4897898;29;20052;-72
2022/03/24 12:53:09;;;;;;;17.20;11.32;;;18.10;44.80;;;;;;4905382;29;20086;-72
2022/03/24 12:55:43;;;;;;;12.45;10.40;;;18.20;45.00;;;;;;4925781;29;20043;-72
2022/03/24 12:58:16;;;;;;;13.25;10.32;;;18.20;45.00;;;;;;4916599;29;20929;-73
2022/03/24 13:00:49;;;;;;;;;;;18.30;44.30;;;;;;4925033;29;20495;-71
2022/03/24 13:03:21;;;;;;;15.02;10.95;;;18.40;43.10;;;;;;4931021;29;20404;-71
2022/03/24 13:05:54;;;;;;;14.30;9.77;;;18.40;42.20;;;;;;4926536;29;20425;-71